sensor_id;sensor_type;location;lat;lon;timestamp;pressure;altitude;pressure_sealevel;temperature;humidity
41306;BME280;27051;50.376;19.152;2024-01-30T00:02:16;99963.97;;;2.65;57.51
41306;BME280;27051;50.376;19.152;2024-01-30T00:04:44;99963.83;;;2.66;57.40
41306;BME280;27051;50.376;19.152;2024-01-30T00:07:11;99963.94;;;2.64;57.30
41306;BME280;27051;50.376;19.152;2024-01-30T00:09:38;99963.67;;;2.64;57.41
41306;BME280;27051;50.376;19.152;2024-01-30T00:12:06;99960.83;;;2.65;57.55
41306;BME280;27051;50.376;19.152;2024-01-30T00:14:33;99959.96;;;2.67;57.47
41306;BME280;27051;50.376;19.152;2024-01-30T00:17:00;99955.79;;;2.66;57.45
41306;BME280;27051;50.376;19.152;2024-01-30T00:19:28;99957.23;;;2.62;57.61
41306;BME280;27051;50.376;19.152;2024-01-30T00:21:55;99957.92;;;2.60;57.53
41306;BME280;27051;50.376;19.152;2024-01-30T00:24:22;99954.36;;;2.56;57.56
41306;BME280;27051;50.376;19.152;2024-01-30T00:26:51;99955.95;;;2.55;57.63
41306;BME280;27051;50.376;19.152;2024-01-30T00:29:18;99957.00;;;2.54;57.66
41306;BME280;27051;50.376;19.152;2024-01-30T00:31:45;99959.77;;;2.52;57.73
41306;BME280;27051;50.376;19.152;2024-01-30T00:34:13;99963.33;;;2.50;57.75
41306;BME280;27051;50.376;19.152;2024-01-30T00:36:40;99962.36;;;2.45;57.82
41306;BME280;27051;50.376;19.152;2024-01-30T00:39:07;99963.02;;;2.44;57.79
41306;BME280;27051;50.376;19.152;2024-01-30T00:41:37;99961.59;;;2.44;57.84
41306;BME280;27051;50.376;19.152;2024-01-30T00:44:04;99958.92;;;2.43;57.96
41306;BME280;27051;50.376;19.152;2024-01-30T00:46:31;99961.94;;;2.45;57.89
41306;BME280;27051;50.376;19.152;2024-01-30T00:48:58;99960.63;;;2.41;57.84
41306;BME280;27051;50.376;19.152;2024-01-30T00:51:25;99957.45;;;2.34;57.85
41306;BME280;27051;50.376;19.152;2024-01-30T00:53:52;99954.55;;;2.32;57.96
41306;BME280;27051;50.376;19.152;2024-01-30T00:56:19;99958.54;;;2.33;57.89
41306;BME280;27051;50.376;19.152;2024-01-30T00:58:46;99956.23;;;2.31;58.00
41306;BME280;27051;50.376;19.152;2024-01-30T01:01:13;99953.65;;;2.27;57.97
41306;BME280;27051;50.376;19.152;2024-01-30T01:03:40;99951.05;;;2.30;58.15
41306;BME280;27051;50.376;19.152;2024-01-30T01:06:07;99950.94;;;2.29;58.12
41306;BME280;27051;50.376;19.152;2024-01-30T01:08:35;99946.09;;;2.28;58.09
41306;BME280;27051;50.376;19.152;2024-01-30T01:11:02;99941.20;;;2.31;58.12
41306;BME280;27051;50.376;19.152;2024-01-30T01:13:29;99939.81;;;2.30;58.16
41306;BME280;27051;50.376;19.152;2024-01-30T01:15:56;99934.91;;;2.29;58.16
41306;BME280;27051;50.376;19.152;2024-01-30T01:18:24;99928.23;;;2.30;58.25
41306;BME280;27051;50.376;19.152;2024-01-30T01:20:51;99927.73;;;2.27;58.10
41306;BME280;27051;50.376;19.152;2024-01-30T01:23:18;99926.16;;;2.26;58.07
41306;BME280;27051;50.376;19.152;2024-01-30T01:25:45;99924.80;;;2.27;58.16
41306;BME280;27051;50.376;19.152;2024-01-30T01:28:12;99925.64;;;2.27;58.10
41306;BME280;27051;50.376;19.152;2024-01-30T01:30:39;99924.26;;;2.27;58.18
41306;BME280;27051;50.376;19.152;2024-01-30T01:33:06;99921.78;;;2.28;58.12
41306;BME280;27051;50.376;19.152;2024-01-30T01:35:33;99916.95;;;2.27;58.14
41306;BME280;27051;50.376;19.152;2024-01-30T01:38:00;99916.63;;;2.27;57.99
41306;BME280;27051;50.376;19.152;2024-01-30T01:40:27;99921.45;;;2.27;58.33
41306;BME280;27051;50.376;19.152;2024-01-30T01:42:55;99916.98;;;2.17;57.78
41306;BME280;27051;50.376;19.152;2024-01-30T01:45:28;99915.73;;;2.07;57.92
41306;BME280;27051;50.376;19.152;2024-01-30T01:47:55;99915.83;;;2.03;57.98
41306;BME280;27051;50.376;19.152;2024-01-30T01:50:23;99914.11;;;1.98;58.01
41306;BME280;27051;50.376;19.152;2024-01-30T01:52:51;99914.66;;;1.97;58.19
41306;BME280;27051;50.376;19.152;2024-01-30T01:55:21;99917.11;;;1.92;58.13
41306;BME280;27051;50.376;19.152;2024-01-30T01:57:48;99916.45;;;1.96;58.48
41306;BME280;27051;50.376;19.152;2024-01-30T02:00:16;99920.02;;;1.97;58.15
41306;BME280;27051;50.376;19.152;2024-01-30T02:02:45;99917.45;;;1.96;58.30
41306;BME280;27051;50.376;19.152;2024-01-30T02:05:15;99917.05;;;1.97;58.30
41306;BME280;27051;50.376;19.152;2024-01-30T02:07:43;99922.33;;;1.92;58.17
41306;BME280;27051;50.376;19.152;2024-01-30T02:10:10;99917.31;;;1.89;58.05
41306;BME280;27051;50.376;19.152;2024-01-30T02:12:37;99917.27;;;1.86;58.24
41306;BME280;27051;50.376;19.152;2024-01-30T02:15:05;99916.77;;;1.87;58.49
41306;BME280;27051;50.376;19.152;2024-01-30T02:17:32;99916.06;;;1.90;58.48
41306;BME280;27051;50.376;19.152;2024-01-30T02:19:59;99904.23;;;1.90;58.47
41306;BME280;27051;50.376;19.152;2024-01-30T02:22:26;99907.27;;;1.87;58.47
41306;BME280;27051;50.376;19.152;2024-01-30T02:24:54;99906.68;;;1.84;58.54
41306;BME280;27051;50.376;19.152;2024-01-30T02:27:21;99908.28;;;1.85;58.68
41306;BME280;27051;50.376;19.152;2024-01-30T02:29:48;99907.70;;;1.84;58.66
41306;BME280;27051;50.376;19.152;2024-01-30T02:32:15;99898.61;;;1.86;58.74
41306;BME280;27051;50.376;19.152;2024-01-30T02:34:42;99898.29;;;1.86;58.67
41306;BME280;27051;50.376;19.152;2024-01-30T02:37:09;99897.00;;;1.85;58.81
41306;BME280;27051;50.376;19.152;2024-01-30T02:39:36;99900.70;;;1.87;58.68
41306;BME280;27051;50.376;19.152;2024-01-30T02:42:04;99898.90;;;1.88;58.70
41306;BME280;27051;50.376;19.152;2024-01-30T02:44:31;99899.17;;;1.88;58.71
41306;BME280;27051;50.376;19.152;2024-01-30T02:46:58;99895.66;;;1.90;58.91
41306;BME280;27051;50.376;19.152;2024-01-30T02:49:25;99898.98;;;1.92;58.69
41306;BME280;27051;50.376;19.152;2024-01-30T02:51:54;99894.89;;;1.92;58.59
41306;BME280;27051;50.376;19.152;2024-01-30T02:54:21;99902.05;;;1.88;58.48
41306;BME280;27051;50.376;19.152;2024-01-30T02:56:48;99898.12;;;1.86;58.50
41306;BME280;27051;50.376;19.152;2024-01-30T02:59:15;99899.79;;;1.88;58.68
41306;BME280;27051;50.376;19.152;2024-01-30T03:01:43;99899.41;;;1.87;58.68
41306;BME280;27051;50.376;19.152;2024-01-30T03:04:10;99898.42;;;1.87;58.73
41306;BME280;27051;50.376;19.152;2024-01-30T03:06:37;99898.34;;;1.89;58.71
41306;BME280;27051;50.376;19.152;2024-01-30T03:09:04;99898.50;;;1.80;58.39
41306;BME280;27051;50.376;19.152;2024-01-30T03:11:32;99897.37;;;1.73;58.44
41306;BME280;27051;50.376;19.152;2024-01-30T03:13:59;99896.17;;;1.74;58.66
41306;BME280;27051;50.376;19.152;2024-01-30T03:16:26;99894.02;;;1.76;58.67
41306;BME280;27051;50.376;19.152;2024-01-30T03:18:53;99894.39;;;1.79;58.83
41306;BME280;27051;50.376;19.152;2024-01-30T03:21:20;99892.00;;;1.82;58.64
41306;BME280;27051;50.376;19.152;2024-01-30T03:23:47;99889.46;;;1.82;58.73
41306;BME280;27051;50.376;19.152;2024-01-30T03:26:14;99886.23;;;1.83;58.86
41306;BME280;27051;50.376;19.152;2024-01-30T03:28:41;99884.35;;;1.83;58.85
41306;BME280;27051;50.376;19.152;2024-01-30T03:31:08;99885.71;;;1.83;58.72
41306;BME280;27051;50.376;19.152;2024-01-30T03:33:36;99885.96;;;1.82;58.69
41306;BME280;27051;50.376;19.152;2024-01-30T03:36:04;99890.52;;;1.82;58.77
41306;BME280;27051;50.376;19.152;2024-01-30T03:38:31;99890.65;;;1.81;58.48
41306;BME280;27051;50.376;19.152;2024-01-30T03:40:59;99887.38;;;1.78;58.51
41306;BME280;27051;50.376;19.152;2024-01-30T03:43:27;99888.30;;;1.72;58.39
41306;BME280;27051;50.376;19.152;2024-01-30T03:45:53;99891.02;;;1.63;58.45
41306;BME280;27051;50.376;19.152;2024-01-30T03:48:21;99890.65;;;1.58;58.64
41306;BME280;27051;50.376;19.152;2024-01-30T03:50:48;99887.56;;;1.57;58.50
41306;BME280;27051;50.376;19.152;2024-01-30T03:53:15;99885.37;;;1.50;58.46
41306;BME280;27051;50.376;19.152;2024-01-30T03:55:41;99880.85;;;1.52;58.85
41306;BME280;27051;50.376;19.152;2024-01-30T03:58:09;99879.35;;;1.58;58.93
41306;BME280;27051;50.376;19.152;2024-01-30T04:00:36;99876.70;;;1.61;58.81
41306;BME280;27051;50.376;19.152;2024-01-30T04:03:03;99881.03;;;1.59;58.88
41306;BME280;27051;50.376;19.152;2024-01-30T04:05:30;99884.27;;;1.60;58.76
41306;BME280;27051;50.376;19.152;2024-01-30T04:07:58;99883.19;;;1.61;58.95
41306;BME280;27051;50.376;19.152;2024-01-30T04:10:25;99887.04;;;1.60;58.85
41306;BME280;27051;50.376;19.152;2024-01-30T04:12:52;99884.30;;;1.59;58.76
41306;BME280;27051;50.376;19.152;2024-01-30T04:15:39;99882.91;;;1.61;58.87
41306;BME280;27051;50.376;19.152;2024-01-30T04:18:06;99881.00;;;1.61;58.75
41306;BME280;27051;50.376;19.152;2024-01-30T04:20:34;99878.91;;;1.59;58.77
41306;BME280;27051;50.376;19.152;2024-01-30T04:23:01;99876.40;;;1.59;58.87
41306;BME280;27051;50.376;19.152;2024-01-30T04:25:29;99875.73;;;1.63;58.98
41306;BME280;27051;50.376;19.152;2024-01-30T04:27:56;99874.34;;;1.62;58.86
41306;BME280;27051;50.376;19.152;2024-01-30T04:30:23;99875.12;;;1.61;59.00
41306;BME280;27051;50.376;19.152;2024-01-30T04:32:50;99877.48;;;1.63;58.81
41306;BME280;27051;50.376;19.152;2024-01-30T04:35:17;99879.25;;;1.61;58.80
41306;BME280;27051;50.376;19.152;2024-01-30T04:37:44;99883.06;;;1.58;58.78
41306;BME280;27051;50.376;19.152;2024-01-30T04:40:12;99884.54;;;1.54;58.54
41306;BME280;27051;50.376;19.152;2024-01-30T04:42:39;99881.50;;;1.50;58.78
41306;BME280;27051;50.376;19.152;2024-01-30T04:45:06;99882.27;;;1.50;58.72
41306;BME280;27051;50.376;19.152;2024-01-30T04:47:33;99881.60;;;1.45;58.74
41306;BME280;27051;50.376;19.152;2024-01-30T04:50:01;99881.44;;;1.43;58.61
41306;BME280;27051;50.376;19.152;2024-01-30T04:52:28;99884.92;;;1.34;58.51
41306;BME280;27051;50.376;19.152;2024-01-30T04:54:55;99887.35;;;1.33;58.61
41306;BME280;27051;50.376;19.152;2024-01-30T04:57:22;99883.13;;;1.34;58.53
41306;BME280;27051;50.376;19.152;2024-01-30T04:59:49;99882.86;;;1.33;58.75
41306;BME280;27051;50.376;19.152;2024-01-30T05:02:16;99884.84;;;1.37;58.77
41306;BME280;27051;50.376;19.152;2024-01-30T05:04:43;99887.02;;;1.41;58.63
41306;BME280;27051;50.376;19.152;2024-01-30T05:07:10;99887.98;;;1.30;58.41
41306;BME280;27051;50.376;19.152;2024-01-30T05:09:37;99896.16;;;1.19;58.32
41306;BME280;27051;50.376;19.152;2024-01-30T05:12:05;99888.64;;;1.14;58.43
41306;BME280;27051;50.376;19.152;2024-01-30T05:14:32;99886.03;;;1.13;58.54
41306;BME280;27051;50.376;19.152;2024-01-30T05:16:59;99889.80;;;1.11;58.61
41306;BME280;27051;50.376;19.152;2024-01-30T05:19:26;99890.45;;;1.04;58.59
41306;BME280;27051;50.376;19.152;2024-01-30T05:21:53;99888.71;;;1.01;58.68
41306;BME280;27051;50.376;19.152;2024-01-30T05:24:20;99889.84;;;1.00;58.75
41306;BME280;27051;50.376;19.152;2024-01-30T05:26:47;99889.36;;;1.02;58.70
41306;BME280;27051;50.376;19.152;2024-01-30T05:29:14;99891.48;;;1.07;59.05
41306;BME280;27051;50.376;19.152;2024-01-30T05:31:41;99892.37;;;1.09;58.64
41306;BME280;27051;50.376;19.152;2024-01-30T05:34:08;99886.77;;;1.13;59.12
41306;BME280;27051;50.376;19.152;2024-01-30T05:36:36;99888.38;;;1.16;59.14
41306;BME280;27051;50.376;19.152;2024-01-30T05:39:03;99887.40;;;1.20;59.16
41306;BME280;27051;50.376;19.152;2024-01-30T05:41:30;99890.94;;;1.22;59.07
41306;BME280;27051;50.376;19.152;2024-01-30T05:43:57;99891.23;;;1.21;59.09
41306;BME280;27051;50.376;19.152;2024-01-30T05:46:24;99888.50;;;1.22;59.10
41306;BME280;27051;50.376;19.152;2024-01-30T05:48:51;99887.70;;;1.21;59.12
41306;BME280;27051;50.376;19.152;2024-01-30T05:51:18;99890.27;;;1.23;58.97
41306;BME280;27051;50.376;19.152;2024-01-30T05:53:45;99891.55;;;1.23;58.99
41306;BME280;27051;50.376;19.152;2024-01-30T05:56:12;99896.35;;;1.22;58.86
41306;BME280;27051;50.376;19.152;2024-01-30T05:58:39;99898.77;;;1.22;58.73
41306;BME280;27051;50.376;19.152;2024-01-30T06:01:07;99900.06;;;1.20;58.75
41306;BME280;27051;50.376;19.152;2024-01-30T06:03:34;99895.16;;;1.13;58.61
41306;BME280;27051;50.376;19.152;2024-01-30T06:06:04;99896.69;;;1.11;58.83
41306;BME280;27051;50.376;19.152;2024-01-30T06:08:31;99898.76;;;1.14;59.14
41306;BME280;27051;50.376;19.152;2024-01-30T06:10:59;99895.92;;;1.13;58.89
41306;BME280;27051;50.376;19.152;2024-01-30T06:13:27;99891.91;;;1.10;58.97
41306;BME280;27051;50.376;19.152;2024-01-30T06:15:54;99889.75;;;1.08;58.98
41306;BME280;27051;50.376;19.152;2024-01-30T06:18:21;99889.73;;;1.07;58.79
41306;BME280;27051;50.376;19.152;2024-01-30T06:20:48;99899.86;;;1.00;58.68
41306;BME280;27051;50.376;19.152;2024-01-30T06:23:15;99897.38;;;1.00;58.90
41306;BME280;27051;50.376;19.152;2024-01-30T06:25:42;99899.86;;;1.03;59.11
41306;BME280;27051;50.376;19.152;2024-01-30T06:28:09;99898.75;;;1.00;58.95
41306;BME280;27051;50.376;19.152;2024-01-30T06:30:36;99890.98;;;1.02;58.98
41306;BME280;27051;50.376;19.152;2024-01-30T06:33:03;99889.15;;;1.05;59.05
41306;BME280;27051;50.376;19.152;2024-01-30T06:35:30;99898.20;;;1.06;59.12
41306;BME280;27051;50.376;19.152;2024-01-30T06:37:57;99899.57;;;1.07;59.20
41306;BME280;27051;50.376;19.152;2024-01-30T06:40:24;99899.55;;;1.08;59.24
41306;BME280;27051;50.376;19.152;2024-01-30T06:42:52;99899.04;;;1.12;59.19
41306;BME280;27051;50.376;19.152;2024-01-30T06:45:19;99896.84;;;1.16;59.19
41306;BME280;27051;50.376;19.152;2024-01-30T06:47:46;99893.16;;;1.17;59.04
41306;BME280;27051;50.376;19.152;2024-01-30T06:50:13;99890.73;;;1.17;59.17
41306;BME280;27051;50.376;19.152;2024-01-30T06:52:40;99891.81;;;1.23;59.31
41306;BME280;27051;50.376;19.152;2024-01-30T06:55:07;99892.23;;;1.27;59.35
41306;BME280;27051;50.376;19.152;2024-01-30T06:57:35;99893.88;;;1.30;59.35
41306;BME280;27051;50.376;19.152;2024-01-30T07:00:02;99895.90;;;1.34;59.33
41306;BME280;27051;50.376;19.152;2024-01-30T07:02:29;99897.45;;;1.39;59.45
41306;BME280;27051;50.376;19.152;2024-01-30T07:04:56;99896.70;;;1.45;59.44
41306;BME280;27051;50.376;19.152;2024-01-30T07:07:24;99896.65;;;1.42;59.41
41306;BME280;27051;50.376;19.152;2024-01-30T07:09:51;99896.98;;;1.59;59.67
41306;BME280;27051;50.376;19.152;2024-01-30T07:12:18;99899.30;;;1.72;59.73
41306;BME280;27051;50.376;19.152;2024-01-30T07:14:45;99901.78;;;1.83;59.55
41306;BME280;27051;50.376;19.152;2024-01-30T07:17:12;99900.40;;;1.86;59.34
41306;BME280;27051;50.376;19.152;2024-01-30T07:19:39;99907.45;;;1.86;59.43
41306;BME280;27051;50.376;19.152;2024-01-30T07:22:08;99903.61;;;2.05;59.52
41306;BME280;27051;50.376;19.152;2024-01-30T07:24:35;99904.64;;;2.25;59.46
41306;BME280;27051;50.376;19.152;2024-01-30T07:27:02;99904.66;;;2.39;59.16
41306;BME280;27051;50.376;19.152;2024-01-30T07:29:29;99904.64;;;2.54;59.10
41306;BME280;27051;50.376;19.152;2024-01-30T07:31:56;99904.02;;;2.66;59.13
41306;BME280;27051;50.376;19.152;2024-01-30T07:34:23;99903.71;;;2.77;58.84
41306;BME280;27051;50.376;19.152;2024-01-30T07:36:50;99899.95;;;2.92;58.74
41306;BME280;27051;50.376;19.152;2024-01-30T07:39:18;99897.29;;;3.10;58.56
41306;BME280;27051;50.376;19.152;2024-01-30T07:41:45;99893.69;;;3.28;58.48
41306;BME280;27051;50.376;19.152;2024-01-30T07:44:12;99895.98;;;3.55;58.56
41306;BME280;27051;50.376;19.152;2024-01-30T07:46:39;99896.45;;;3.79;57.91
41306;BME280;27051;50.376;19.152;2024-01-30T07:49:06;99895.52;;;3.97;57.64
41306;BME280;27051;50.376;19.152;2024-01-30T07:51:34;99896.00;;;4.26;57.68
41306;BME280;27051;50.376;19.152;2024-01-30T07:54:00;99896.98;;;4.60;57.56
41306;BME280;27051;50.376;19.152;2024-01-30T07:56:28;99902.17;;;4.88;57.22
41306;BME280;27051;50.376;19.152;2024-01-30T07:58:55;99899.14;;;5.17;57.10
41306;BME280;27051;50.376;19.152;2024-01-30T08:01:25;99897.27;;;5.47;56.67
41306;BME280;27051;50.376;19.152;2024-01-30T08:03:53;99898.67;;;5.55;56.32
41306;BME280;27051;50.376;19.152;2024-01-30T08:06:20;99899.62;;;5.54;56.09
41306;BME280;27051;50.376;19.152;2024-01-30T08:08:47;99904.70;;;5.54;55.98
41306;BME280;27051;50.376;19.152;2024-01-30T08:11:16;99904.04;;;5.52;55.93
41306;BME280;27051;50.376;19.152;2024-01-30T08:13:44;99905.73;;;5.48;55.95
41306;BME280;27051;50.376;19.152;2024-01-30T08:16:11;99903.67;;;5.37;55.81
41306;BME280;27051;50.376;19.152;2024-01-30T08:18:38;99901.62;;;5.23;55.92
41306;BME280;27051;50.376;19.152;2024-01-30T08:21:05;99902.36;;;5.11;56.12
41306;BME280;27051;50.376;19.152;2024-01-30T08:23:32;99902.56;;;5.00;56.19
41306;BME280;27051;50.376;19.152;2024-01-30T08:25:59;99902.02;;;4.90;56.17
41306;BME280;27051;50.376;19.152;2024-01-30T08:28:26;99901.98;;;4.83;56.13
41306;BME280;27051;50.376;19.152;2024-01-30T08:30:54;99903.64;;;4.75;56.16
41306;BME280;27051;50.376;19.152;2024-01-30T08:33:21;99903.46;;;4.73;56.33
41306;BME280;27051;50.376;19.152;2024-01-30T08:35:48;99903.15;;;4.82;56.37
41306;BME280;27051;50.376;19.152;2024-01-30T08:38:15;99901.98;;;4.92;56.27
41306;BME280;27051;50.376;19.152;2024-01-30T08:40:43;99904.94;;;5.05;56.29
41306;BME280;27051;50.376;19.152;2024-01-30T08:43:10;99908.23;;;5.30;56.20
41306;BME280;27051;50.376;19.152;2024-01-30T08:45:37;99902.01;;;5.67;55.91
41306;BME280;27051;50.376;19.152;2024-01-30T08:48:04;99901.31;;;6.25;55.59
41306;BME280;27051;50.376;19.152;2024-01-30T08:50:32;99896.42;;;6.84;55.26
41306;BME280;27051;50.376;19.152;2024-01-30T08:52:59;99900.89;;;7.37;54.56
41306;BME280;27051;50.376;19.152;2024-01-30T08:55:26;99898.28;;;7.83;54.33
41306;BME280;27051;50.376;19.152;2024-01-30T08:57:56;99899.13;;;8.25;53.52
41306;BME280;27051;50.376;19.152;2024-01-30T09:00:23;99900.11;;;8.67;53.41
41306;BME280;27051;50.376;19.152;2024-01-30T09:02:50;99897.99;;;8.98;52.82
41306;BME280;27051;50.376;19.152;2024-01-30T09:05:17;99899.04;;;9.20;52.59
41306;BME280;27051;50.376;19.152;2024-01-30T09:07:44;99890.81;;;9.50;52.55
41306;BME280;27051;50.376;19.152;2024-01-30T09:10:12;99888.70;;;9.80;51.95
41306;BME280;27051;50.376;19.152;2024-01-30T09:12:39;99890.52;;;10.07;51.76
41306;BME280;27051;50.376;19.152;2024-01-30T09:15:07;99883.95;;;10.22;51.17
41306;BME280;27051;50.376;19.152;2024-01-30T09:17:34;99889.66;;;10.18;50.76
41306;BME280;27051;50.376;19.152;2024-01-30T09:20:01;99891.27;;;10.21;50.71
41306;BME280;27051;50.376;19.152;2024-01-30T09:22:29;99889.34;;;10.21;50.67
41306;BME280;27051;50.376;19.152;2024-01-30T09:24:56;99891.48;;;10.26;50.56
41306;BME280;27051;50.376;19.152;2024-01-30T09:27:23;99885.66;;;10.23;49.80
41306;BME280;27051;50.376;19.152;2024-01-30T09:29:51;99882.94;;;10.30;50.11
41306;BME280;27051;50.376;19.152;2024-01-30T09:32:20;99880.40;;;10.49;49.75
41306;BME280;27051;50.376;19.152;2024-01-30T09:34:47;99882.40;;;10.59;49.42
41306;BME280;27051;50.376;19.152;2024-01-30T09:37:15;99880.99;;;10.67;48.85
41306;BME280;27051;50.376;19.152;2024-01-30T09:39:53;99878.67;;;10.67;49.04
41306;BME280;27051;50.376;19.152;2024-01-30T09:42:35;99877.63;;;10.66;49.22
41306;BME280;27051;50.376;19.152;2024-01-30T09:45:04;99880.05;;;10.65;49.16
41306;BME280;27051;50.376;19.152;2024-01-30T09:47:40;99879.52;;;10.50;48.68
41306;BME280;27051;50.376;19.152;2024-01-30T09:50:09;99876.81;;;10.38;49.09
41306;BME280;27051;50.376;19.152;2024-01-30T09:52:37;99875.31;;;10.46;48.74
41306;BME280;27051;50.376;19.152;2024-01-30T09:55:07;99873.14;;;10.55;47.56
41306;BME280;27051;50.376;19.152;2024-01-30T09:57:37;99868.17;;;10.53;48.04
41306;BME280;27051;50.376;19.152;2024-01-30T10:00:06;99865.08;;;10.42;47.55
41306;BME280;27051;50.376;19.152;2024-01-30T10:02:34;99862.13;;;10.37;47.47
41306;BME280;27051;50.376;19.152;2024-01-30T10:05:02;99863.17;;;10.59;46.46
41306;BME280;27051;50.376;19.152;2024-01-30T10:07:29;99856.87;;;10.81;46.16
41306;BME280;27051;50.376;19.152;2024-01-30T10:09:56;99854.67;;;11.09;45.67
41306;BME280;27051;50.376;19.152;2024-01-30T10:12:26;99857.63;;;11.35;45.93
41306;BME280;27051;50.376;19.152;2024-01-30T10:15:09;99855.35;;;11.59;44.31
41306;BME280;27051;50.376;19.152;2024-01-30T10:17:57;99849.87;;;11.94;44.65
41306;BME280;27051;50.376;19.152;2024-01-30T10:20:34;99843.66;;;12.16;44.37
41306;BME280;27051;50.376;19.152;2024-01-30T10:23:01;99843.14;;;12.10;43.61
41306;BME280;27051;50.376;19.152;2024-01-30T10:25:31;99837.67;;;11.85;43.31
41306;BME280;27051;50.376;19.152;2024-01-30T10:27:59;99836.73;;;11.78;42.92
41306;BME280;27051;50.376;19.152;2024-01-30T10:30:29;99830.44;;;11.71;43.07
41306;BME280;27051;50.376;19.152;2024-01-30T10:32:58;99831.28;;;11.39;43.54
41306;BME280;27051;50.376;19.152;2024-01-30T10:35:28;99828.08;;;11.06;43.29
41306;BME280;27051;50.376;19.152;2024-01-30T10:37:57;99828.52;;;10.78;43.68
41306;BME280;27051;50.376;19.152;2024-01-30T10:40:27;99829.53;;;10.58;43.51
41306;BME280;27051;50.376;19.152;2024-01-30T10:42:55;99822.07;;;10.41;43.98
41306;BME280;27051;50.376;19.152;2024-01-30T10:45:22;99815.15;;;10.28;43.88
41306;BME280;27051;50.376;19.152;2024-01-30T10:47:53;99817.58;;;10.13;43.68
41306;BME280;27051;50.376;19.152;2024-01-30T10:50:24;99817.40;;;9.97;43.59
41306;BME280;27051;50.376;19.152;2024-01-30T10:52:52;99810.33;;;9.85;43.56
41306;BME280;27051;50.376;19.152;2024-01-30T10:55:21;99805.09;;;9.79;43.71
41306;BME280;27051;50.376;19.152;2024-01-30T10:57:51;99804.94;;;9.72;43.11
41306;BME280;27051;50.376;19.152;2024-01-30T11:00:18;99802.50;;;9.66;44.04
41306;BME280;27051;50.376;19.152;2024-01-30T11:02:47;99803.79;;;9.69;44.25
41306;BME280;27051;50.376;19.152;2024-01-30T11:05:23;99800.88;;;9.73;43.83
41306;BME280;27051;50.376;19.152;2024-01-30T11:07:50;99798.02;;;9.71;43.63
41306;BME280;27051;50.376;19.152;2024-01-30T11:10:18;99795.24;;;9.77;43.99
41306;BME280;27051;50.376;19.152;2024-01-30T11:12:47;99796.33;;;9.91;43.24
41306;BME280;27051;50.376;19.152;2024-01-30T11:15:18;99791.43;;;10.14;43.31
41306;BME280;27051;50.376;19.152;2024-01-30T11:20:20;99787.70;;;11.67;41.85
41306;BME280;27051;50.376;19.152;2024-01-30T11:22:47;99786.41;;;11.97;41.39
41306;BME280;27051;50.376;19.152;2024-01-30T11:25:16;99783.69;;;12.48;41.31
41306;BME280;27051;50.376;19.152;2024-01-30T11:27:44;99779.14;;;13.47;40.83
41306;BME280;27051;50.376;19.152;2024-01-30T11:30:28;99775.05;;;13.88;40.89
41306;BME280;27051;50.376;19.152;2024-01-30T11:35:27;99774.74;;;13.15;40.57
41306;BME280;27051;50.376;19.152;2024-01-30T11:37:57;99772.98;;;12.77;40.28
41306;BME280;27051;50.376;19.152;2024-01-30T11:40:30;99772.17;;;12.43;40.05
41306;BME280;27051;50.376;19.152;2024-01-30T11:42:59;99769.20;;;12.20;40.74
41306;BME280;27051;50.376;19.152;2024-01-30T11:45:27;99767.27;;;12.08;41.18
41306;BME280;27051;50.376;19.152;2024-01-30T11:47:57;99763.52;;;12.00;40.61
41306;BME280;27051;50.376;19.152;2024-01-30T11:50:24;99761.99;;;11.89;39.94
41306;BME280;27051;50.376;19.152;2024-01-30T11:52:52;99755.96;;;11.81;40.21
41306;BME280;27051;50.376;19.152;2024-01-30T11:55:20;99755.73;;;11.75;40.34
41306;BME280;27051;50.376;19.152;2024-01-30T11:57:48;99747.59;;;11.77;40.51
41306;BME280;27051;50.376;19.152;2024-01-30T12:00:19;99742.62;;;12.03;40.32
41306;BME280;27051;50.376;19.152;2024-01-30T12:02:54;99734.34;;;12.69;39.55
41306;BME280;27051;50.376;19.152;2024-01-30T12:05:28;99728.70;;;14.64;39.07
41306;BME280;27051;50.376;19.152;2024-01-30T12:07:59;99723.87;;;17.07;37.30
41306;BME280;27051;50.376;19.152;2024-01-30T12:10:26;99710.20;;;19.26;36.53
41306;BME280;27051;50.376;19.152;2024-01-30T12:12:53;99703.90;;;21.23;35.68
41306;BME280;27051;50.376;19.152;2024-01-30T12:15:22;99700.80;;;22.87;34.10
41306;BME280;27051;50.376;19.152;2024-01-30T12:17:50;99700.04;;;24.24;33.85
41306;BME280;27051;50.376;19.152;2024-01-30T12:20:18;99697.77;;;25.44;32.25
41306;BME280;27051;50.376;19.152;2024-01-30T12:22:47;99695.90;;;26.42;31.65
41306;BME280;27051;50.376;19.152;2024-01-30T12:25:17;99691.81;;;27.26;30.49
41306;BME280;27051;50.376;19.152;2024-01-30T12:27:47;99688.80;;;27.75;29.99
41306;BME280;27051;50.376;19.152;2024-01-30T12:30:14;99690.80;;;27.56;29.89
41306;BME280;27051;50.376;19.152;2024-01-30T12:32:43;99689.20;;;26.49;30.12
41306;BME280;27051;50.376;19.152;2024-01-30T12:35:12;99690.03;;;26.53;29.36
41306;BME280;27051;50.376;19.152;2024-01-30T12:37:40;99678.34;;;27.61;28.40
41306;BME280;27051;50.376;19.152;2024-01-30T12:40:08;99677.05;;;28.85;27.25
41306;BME280;27051;50.376;19.152;2024-01-30T12:42:35;99676.80;;;29.70;25.96
41306;BME280;27051;50.376;19.152;2024-01-30T12:45:03;99677.21;;;30.34;25.17
41306;BME280;27051;50.376;19.152;2024-01-30T12:47:32;99676.55;;;30.93;24.89
41306;BME280;27051;50.376;19.152;2024-01-30T12:49:59;99675.77;;;31.12;24.50
41306;BME280;27051;50.376;19.152;2024-01-30T12:52:26;99671.71;;;31.19;23.98
41306;BME280;27051;50.376;19.152;2024-01-30T12:54:53;99669.49;;;31.50;23.67
41306;BME280;27051;50.376;19.152;2024-01-30T12:57:20;99666.27;;;32.03;21.88
41306;BME280;27051;50.376;19.152;2024-01-30T12:59:48;99665.91;;;32.22;21.61
41306;BME280;27051;50.376;19.152;2024-01-30T13:02:16;99665.60;;;32.59;21.39
41306;BME280;27051;50.376;19.152;2024-01-30T13:04:43;99666.67;;;33.10;21.08
41306;BME280;27051;50.376;19.152;2024-01-30T13:07:10;99662.89;;;33.28;19.99